Time;durP1;ratioP1;P1;durP2;ratioP2;P2;SDS_P1;SDS_P2;PMS_P1;PMS_P2;Temp;Humidity;BMP_temperature;BMP_pressure;BME280_temperature;BME280_humidity;BME280_pressure;Samples;Min_cycle;Max_cycle;Signal;HPM_P1;HPM_P2
2023/07/04 00:00:39;;;;;;;37.67;36.38;;;19.90;99.90;;;;;;5009902;28;20225;-68
2023/07/04 00:03:06;;;;;;;38.25;36.90;;;19.80;99.90;;;;;;5010954;28;20212;-69
2023/07/04 00:05:33;;;;;;;41.28;39.78;;;19.70;99.90;;;;;;5011898;28;20324;-70
2023/07/04 00:08:00;;;;;;;38.00;36.65;;;19.50;99.90;;;;;;5016622;28;20268;-70
2023/07/04 00:10:27;;;;;;;36.05;34.75;;;19.50;99.90;;;;;;5011247;28;20315;-70
2023/07/04 00:12:56;;;;;;;34.05;32.85;;;19.50;99.90;;;;;;5012392;28;20252;-70
2023/07/04 00:15:22;;;;;;;33.00;31.85;;;19.50;99.90;;;;;;5012281;28;20296;-69
2023/07/04 00:17:50;;;;;;;29.58;28.52;;;19.50;99.90;;;;;;5011720;28;20599;-70
2023/07/04 00:20:17;;;;;;;33.88;32.65;;;19.50;99.90;;;;;;5011091;28;20311;-70
2023/07/04 00:22:44;;;;;;;32.97;31.83;;;19.40;99.90;;;;;;5011138;28;20209;-71
2023/07/04 00:25:11;;;;;;;29.17;28.15;;;19.40;99.90;;;;;;5010806;28;20628;-70
2023/07/04 00:27:40;;;;;;;25.90;25.02;;;19.30;99.90;;;;;;5010776;28;20292;-69
2023/07/04 00:30:10;;;;;;;23.67;22.85;;;19.30;99.90;;;;;;5010158;28;20220;-69
2023/07/04 00:32:37;;;;;;;25.63;24.73;;;19.30;99.90;;;;;;5010941;28;20189;-70
2023/07/04 00:35:06;;;;;;;25.48;24.60;;;19.30;99.90;;;;;;5010728;28;20267;-70
2023/07/04 00:37:33;;;;;;;23.80;22.95;;;19.20;99.90;;;;;;5011207;28;20667;-71
2023/07/04 00:40:02;;;;;;;22.95;22.10;;;19.20;99.90;;;;;;5010163;28;20229;-70
2023/07/04 00:42:31;;;;;;;21.17;20.45;;;19.20;99.90;;;;;;5010793;28;20224;-69
2023/07/04 00:44:58;;;;;;;20.70;20.00;;;19.20;99.90;;;;;;4996454;28;20214;-70
2023/07/04 00:47:46;;;;;;;20.38;19.67;;;19.10;99.90;;;;;;5010178;28;20735;-68
2023/07/04 00:50:13;;;;;;;19.40;18.70;;;19.10;99.90;;;;;;5014898;28;20232;-67
2023/07/04 00:52:41;;;;;;;18.88;18.27;;;19.10;99.90;;;;;;5017433;28;20239;-68
2023/07/04 00:55:11;;;;;;;18.10;17.50;;;19.20;99.90;;;;;;5012485;28;20240;-66
2023/07/04 00:57:39;;;;;;;18.02;17.42;;;19.20;99.90;;;;;;5008979;28;20648;-68
2023/07/04 01:00:16;;;;;;;17.35;16.75;;;19.20;99.90;;;;;;4991516;28;20238;-68
2023/07/04 01:02:47;;;;;;;17.80;17.20;;;19.20;99.90;;;;;;4992022;28;20230;-66
2023/07/04 01:05:19;;;;;;;18.15;17.55;;;19.20;99.90;;;;;;4991956;28;20633;-67
2023/07/04 01:07:53;;;;;;;18.10;17.50;;;19.10;99.90;;;;;;4991761;28;20691;-69
2023/07/04 01:12:55;;;;;;;18.52;17.92;;;19.00;99.90;;;;;;4991638;28;20590;-68
2023/07/04 01:15:23;;;;;;;18.75;18.15;;;19.00;99.90;;;;;;4994020;28;20208;-68
2023/07/04 01:17:53;;;;;;;19.00;18.30;;;18.90;99.90;;;;;;4993694;28;20228;-68
2023/07/04 01:20:20;;;;;;;19.27;18.60;;;18.90;99.90;;;;;;4993133;28;20210;-68
2023/07/04 01:22:59;;;;;;;18.58;17.88;;;19.00;99.90;;;;;;4970522;28;20233;-68
2023/07/04 01:25:34;;;;;;;18.05;17.45;;;18.90;99.90;;;;;;4977349;28;20190;-67
2023/07/04 01:28:04;;;;;;;18.73;18.02;;;18.90;99.90;;;;;;4989103;28;20313;-67
2023/07/04 01:30:38;;;;;;;17.65;17.05;;;18.90;99.90;;;;;;4987039;28;20207;-68
2023/07/04 01:33:06;;;;;;;17.75;17.15;;;18.80;99.90;;;;;;4986497;28;20264;-67
2023/07/04 01:35:34;;;;;;;17.80;17.20;;;18.80;99.90;;;;;;4985433;28;20509;-66
2023/07/04 01:38:01;;;;;;;16.30;15.75;;;18.80;99.90;;;;;;4981899;28;20270;-66
2023/07/04 01:40:30;;;;;;;17.80;17.20;;;18.80;99.90;;;;;;4978022;28;20217;-68
2023/07/04 01:42:57;;;;;;;17.15;16.55;;;18.70;99.90;;;;;;4980105;28;20983;-66
2023/07/04 01:45:25;;;;;;;17.08;16.48;;;18.70;99.90;;;;;;4975590;28;20229;-66
2023/07/04 01:47:52;;;;;;;17.55;16.95;;;18.70;99.90;;;;;;4975423;28;20318;-67
2023/07/04 01:50:20;;;;;;;17.67;17.08;;;18.70;99.90;;;;;;4974409;28;20620;-67
2023/07/04 01:52:47;;;;;;;17.73;17.13;;;18.70;99.90;;;;;;4975205;28;20298;-67
2023/07/04 01:55:15;;;;;;;18.08;17.38;;;18.70;99.90;;;;;;4974947;28;20207;-67
2023/07/04 01:57:43;;;;;;;17.65;17.05;;;18.70;99.90;;;;;;4974822;28;21031;-67
2023/07/04 02:00:12;;;;;;;18.10;17.50;;;18.70;99.90;;;;;;4974605;28;20233;-68
2023/07/04 02:02:41;;;;;;;18.23;17.63;;;18.70;99.90;;;;;;4974738;28;20318;-66
2023/07/04 02:05:09;;;;;;;18.33;17.73;;;18.60;99.90;;;;;;4974639;28;20221;-66
2023/07/04 02:07:36;;;;;;;19.35;18.65;;;18.60;99.90;;;;;;4974466;28;20573;-68
2023/07/04 02:10:03;;;;;;;18.98;18.35;;;18.60;99.90;;;;;;4974162;28;20207;-66
2023/07/04 02:12:30;;;;;;;18.02;17.42;;;18.60;99.90;;;;;;4974637;28;20235;-66
2023/07/04 02:14:56;;;;;;;17.20;16.60;;;18.60;99.90;;;;;;4975287;28;20206;-68
2023/07/04 02:17:23;;;;;;;17.48;16.88;;;18.50;99.90;;;;;;4973705;28;20673;-67
2023/07/04 02:19:52;;;;;;;16.33;15.75;;;18.50;99.90;;;;;;4974177;28;20301;-67
2023/07/04 02:22:18;;;;;;;15.45;14.88;;;18.50;99.90;;;;;;4974925;28;20231;-67
2023/07/04 02:24:45;;;;;;;15.43;14.90;;;18.40;99.90;;;;;;4976378;28;20645;-66
2023/07/04 02:27:12;;;;;;;15.32;14.82;;;18.40;99.90;;;;;;4976168;28;20305;-67
2023/07/04 02:29:39;;;;;;;15.67;15.13;;;18.40;99.90;;;;;;4975714;28;20225;-66
2023/07/04 02:32:07;;;;;;;15.23;14.70;;;18.40;99.90;;;;;;4985645;28;20238;-67
2023/07/04 02:34:33;;;;;;;14.30;13.80;;;18.40;99.90;;;;;;4987768;28;20222;-68
2023/07/04 02:37:02;;;;;;;14.65;14.15;;;18.30;99.90;;;;;;4984679;28;20269;-68
2023/07/04 02:39:29;;;;;;;14.65;14.15;;;18.30;99.90;;;;;;4981568;28;20230;-67
2023/07/04 02:41:56;;;;;;;14.10;13.60;;;18.30;99.90;;;;;;4978544;28;20227;-67
2023/07/04 02:44:23;;;;;;;13.85;13.35;;;18.20;99.90;;;;;;4974395;28;20207;-67
2023/07/04 02:46:50;;;;;;;14.07;13.57;;;18.20;99.90;;;;;;4973427;28;20695;-68
2023/07/04 02:49:17;;;;;;;14.00;13.50;;;18.20;99.90;;;;;;4972321;28;20206;-66
2023/07/04 02:51:46;;;;;;;13.80;13.30;;;18.20;99.90;;;;;;4972704;28;20236;-67
2023/07/04 02:54:15;;;;;;;14.20;13.70;;;18.10;99.90;;;;;;4973023;28;20298;-67
2023/07/04 02:56:42;;;;;;;13.68;13.18;;;18.10;99.90;;;;;;4972643;28;20210;-67
2023/07/04 02:59:09;;;;;;;14.18;13.68;;;18.10;99.90;;;;;;4972323;28;20302;-67
2023/07/04 03:01:36;;;;;;;13.18;12.77;;;18.10;99.90;;;;;;4972598;28;20309;-66
2023/07/04 03:04:03;;;;;;;14.00;13.50;;;18.10;99.90;;;;;;4973494;28;20210;-67
2023/07/04 03:06:30;;;;;;;13.13;12.73;;;18.10;99.90;;;;;;4972816;28;20199;-66
2023/07/04 03:08:57;;;;;;;13.85;13.35;;;18.10;99.90;;;;;;4976808;28;20294;-66
2023/07/04 03:11:25;;;;;;;13.77;13.27;;;18.10;99.90;;;;;;4974788;28;20238;-66
2023/07/04 03:13:52;;;;;;;13.50;13.05;;;18.10;99.90;;;;;;4975548;28;20211;-66
2023/07/04 03:16:19;;;;;;;13.50;13.05;;;18.00;99.90;;;;;;4974902;28;20289;-68
2023/07/04 03:18:46;;;;;;;13.68;13.20;;;18.00;99.90;;;;;;4972616;28;20301;-66
2023/07/04 03:21:13;;;;;;;13.88;13.38;;;18.00;99.90;;;;;;4970790;28;20232;-66
2023/07/04 03:23:40;;;;;;;13.77;13.27;;;18.10;99.90;;;;;;4972394;28;20218;-66
2023/07/04 03:26:07;;;;;;;13.80;13.27;;;18.00;99.90;;;;;;4972949;28;20615;-66
2023/07/04 03:28:35;;;;;;;13.20;12.77;;;18.00;99.90;;;;;;4972931;28;20202;-64
2023/07/04 03:31:02;;;;;;;13.82;13.32;;;18.00;99.90;;;;;;4972080;28;20230;-66
2023/07/04 03:33:29;;;;;;;14.20;13.70;;;18.10;99.90;;;;;;4972515;28;20209;-67
2023/07/04 03:35:55;;;;;;;14.05;13.55;;;18.10;99.90;;;;;;4972631;28;20301;-67
2023/07/04 03:38:22;;;;;;;13.75;13.25;;;18.10;99.90;;;;;;4972514;28;20273;-67
2023/07/04 03:40:49;;;;;;;13.93;13.43;;;18.10;99.90;;;;;;4971467;28;20231;-66
2023/07/04 03:43:16;;;;;;;13.85;13.35;;;18.10;99.90;;;;;;4972189;28;20337;-66
2023/07/04 03:45:47;;;;;;;13.70;13.23;;;18.10;99.90;;;;;;4970384;28;20580;-65
2023/07/04 03:48:14;;;;;;;13.63;13.13;;;18.20;99.90;;;;;;4972559;28;20229;-67
2023/07/04 03:50:41;;;;;;;13.50;13.00;;;18.20;99.90;;;;;;4978851;28;20294;-66
2023/07/04 03:53:08;;;;;;;13.98;13.48;;;18.20;99.90;;;;;;4972943;28;20662;-66
2023/07/04 03:55:34;;;;;;;13.82;13.32;;;18.10;99.90;;;;;;4973826;28;20242;-67
2023/07/04 03:58:02;;;;;;;14.10;13.60;;;18.10;99.90;;;;;;4971609;28;20305;-67
2023/07/04 04:00:29;;;;;;;13.80;13.30;;;18.20;99.90;;;;;;4971214;28;20297;-67
2023/07/04 04:02:57;;;;;;;13.73;13.23;;;18.20;99.90;;;;;;4972422;28;20229;-67
2023/07/04 04:05:24;;;;;;;14.00;13.50;;;18.10;99.90;;;;;;4971545;28;20235;-68
2023/07/04 04:07:51;;;;;;;14.38;13.88;;;18.10;99.90;;;;;;4972319;28;20213;-66
2023/07/04 04:10:19;;;;;;;14.32;13.82;;;18.10;99.90;;;;;;4971844;28;20210;-67
2023/07/04 04:12:45;;;;;;;14.38;13.88;;;18.20;99.90;;;;;;4972771;28;20656;-66
2023/07/04 04:15:13;;;;;;;14.10;13.60;;;18.30;99.90;;;;;;4972781;28;20293;-67
2023/07/04 04:17:40;;;;;;;14.20;13.70;;;18.20;99.90;;;;;;4971972;28;20222;-66
2023/07/04 04:20:10;;;;;;;13.93;13.43;;;18.10;99.90;;;;;;4971797;28;20527;-66
2023/07/04 04:22:39;;;;;;;13.57;13.13;;;18.20;99.90;;;;;;4969900;28;20230;-66
2023/07/04 04:25:07;;;;;;;13.95;13.40;;;18.20;99.90;;;;;;4982384;28;20210;-68
2023/07/04 04:27:35;;;;;;;14.50;14.00;;;18.20;99.90;;;;;;4981120;28;20234;-67
2023/07/04 04:30:05;;;;;;;15.00;14.50;;;18.20;99.90;;;;;;4980417;28;20225;-66
2023/07/04 04:32:32;;;;;;;13.30;12.80;;;18.30;99.90;;;;;;4983743;28;20222;-61
2023/07/04 04:34:59;;;;;;;14.00;13.50;;;18.40;99.90;;;;;;4959266;29;20214;-61
2023/07/04 04:37:27;;;;;;;13.00;12.60;;;18.70;99.90;;;;;;4968159;28;20202;-60
2023/07/04 04:39:54;;;;;;;13.75;13.27;;;19.20;99.90;;;;;;4972057;28;20206;-60
2023/07/04 04:42:23;;;;;;;13.73;13.23;;;19.40;99.90;;;;;;4969157;28;20231;-60
2023/07/04 04:44:53;;;;;;;13.68;13.18;;;19.50;99.90;;;;;;4960185;28;20318;-60
2023/07/04 04:47:22;;;;;;;14.27;13.77;;;19.50;99.90;;;;;;4961496;28;20241;-60
2023/07/04 04:49:50;;;;;;;14.73;14.23;;;19.60;99.90;;;;;;4954951;29;20721;-59
2023/07/04 04:52:17;;;;;;;15.20;14.70;;;19.60;99.90;;;;;;4956165;29;20285;-60
2023/07/04 04:54:45;;;;;;;15.75;15.15;;;19.70;99.90;;;;;;4968387;28;20218;-61
2023/07/04 04:57:13;;;;;;;15.73;15.23;;;19.80;99.90;;;;;;4971139;28;20207;-60
2023/07/04 04:59:39;;;;;;;16.20;15.63;;;19.90;99.90;;;;;;4974204;28;20210;-61
2023/07/04 05:02:06;;;;;;;17.42;16.83;;;20.10;99.90;;;;;;4974252;28;20226;-61
2023/07/04 05:04:34;;;;;;;18.98;18.33;;;20.20;99.90;;;;;;4968604;28;20294;-60
2023/07/04 05:07:00;;;;;;;20.33;19.63;;;20.20;99.90;;;;;;4974972;28;20234;-63
2023/07/04 05:09:28;;;;;;;22.50;21.70;;;20.20;99.90;;;;;;4982417;28;20234;-61
2023/07/04 05:11:56;;;;;;;22.10;21.30;;;20.30;99.90;;;;;;4982000;28;20695;-61
2023/07/04 05:14:23;;;;;;;23.58;22.77;;;20.30;99.90;;;;;;4975226;28;20239;-61
2023/07/04 05:16:49;;;;;;;23.88;23.08;;;20.40;99.90;;;;;;4978953;28;20300;-60
2023/07/04 05:19:16;;;;;;;22.30;21.45;;;20.40;99.90;;;;;;4976705;28;20217;-59
2023/07/04 05:21:43;;;;;;;20.45;19.75;;;20.60;99.90;;;;;;4975103;28;20239;-59
2023/07/04 05:24:10;;;;;;;21.38;20.60;;;20.60;99.90;;;;;;4974630;28;20210;-61
2023/07/04 05:26:37;;;;;;;20.93;20.23;;;20.70;99.90;;;;;;4968597;28;20663;-59
2023/07/04 05:29:08;;;;;;;21.63;20.92;;;20.60;99.90;;;;;;4965740;28;20222;-59
2023/07/04 05:31:35;;;;;;;20.50;19.80;;;20.60;99.90;;;;;;4964722;28;20717;-63
2023/07/04 05:34:02;;;;;;;22.88;22.08;;;20.50;99.90;;;;;;4965716;28;20290;-62
2023/07/04 05:36:32;;;;;;;25.75;24.83;;;20.30;99.90;;;;;;4969626;28;20202;-62
2023/07/04 05:39:00;;;;;;;26.60;25.70;;;20.30;99.90;;;;;;4974429;28;20203;-62
2023/07/04 05:41:29;;;;;;;26.73;25.83;;;20.40;99.90;;;;;;4975179;28;20230;-63
2023/07/04 05:43:57;;;;;;;26.00;25.10;;;20.50;99.90;;;;;;4976279;28;20314;-62
2023/07/04 05:46:25;;;;;;;26.45;25.33;;;20.60;99.90;;;;;;4975101;28;20231;-61
2023/07/04 05:48:53;;;;;;;26.17;25.27;;;20.70;99.90;;;;;;4975448;28;20238;-64
2023/07/04 05:51:21;;;;;;;25.55;24.65;;;20.80;99.90;;;;;;4977134;28;20222;-63
2023/07/04 05:53:49;;;;;;;24.93;24.03;;;20.90;99.90;;;;;;4975155;28;20243;-64
2023/07/04 05:56:19;;;;;;;24.50;23.60;;;21.00;99.90;;;;;;4972612;28;20215;-63
2023/07/04 05:58:48;;;;;;;24.83;23.97;;;21.00;99.90;;;;;;4968187;28;20779;-63
2023/07/04 06:01:17;;;;;;;24.95;24.02;;;21.00;99.90;;;;;;4964913;28;20273;-64
2023/07/04 06:03:45;;;;;;;23.50;22.70;;;21.10;99.90;;;;;;4971283;28;20227;-63
2023/07/04 06:06:18;;;;;;;23.02;22.13;;;21.10;99.90;;;;;;4973954;28;20213;-62
2023/07/04 06:08:45;;;;;;;23.13;22.33;;;21.10;99.90;;;;;;4973758;28;20187;-62
2023/07/04 06:11:12;;;;;;;23.50;22.70;;;21.20;99.90;;;;;;4972266;28;20246;-63
2023/07/04 06:13:38;;;;;;;23.10;22.30;;;21.20;99.90;;;;;;4972315;28;20568;-63
2023/07/04 06:16:06;;;;;;;22.70;21.90;;;21.30;99.90;;;;;;4974670;28;20210;-64
2023/07/04 06:18:32;;;;;;;22.67;21.88;;;21.30;99.90;;;;;;4974541;28;20207;-64
2023/07/04 06:21:08;;;;;;;23.23;22.43;;;21.30;99.90;;;;;;4973290;28;20230;-63
2023/07/04 06:23:34;;;;;;;22.90;22.10;;;21.40;99.90;;;;;;4974077;28;20779;-62
2023/07/04 06:26:01;;;;;;;22.80;22.00;;;21.40;99.90;;;;;;4973472;28;20210;-64
2023/07/04 06:28:28;;;;;;;22.88;22.08;;;21.40;99.90;;;;;;4973847;28;20221;-63
2023/07/04 06:30:55;;;;;;;22.98;22.17;;;21.50;99.90;;;;;;4972567;28;20237;-65
2023/07/04 06:33:22;;;;;;;23.05;22.25;;;21.50;99.90;;;;;;4973817;28;20202;-63
2023/07/04 06:35:48;;;;;;;23.70;22.88;;;21.60;99.90;;;;;;4973890;28;20232;-62
2023/07/04 06:38:16;;;;;;;23.77;22.95;;;21.70;99.90;;;;;;4974060;28;20209;-63
2023/07/04 06:40:43;;;;;;;23.88;22.98;;;21.70;99.90;;;;;;4973124;28;20262;-63
2023/07/04 06:43:10;;;;;;;24.35;23.52;;;21.80;99.90;;;;;;4978472;28;20697;-65
2023/07/04 06:45:37;;;;;;;24.88;24.00;;;21.80;99.90;;;;;;4980119;28;20716;-62
2023/07/04 06:48:04;;;;;;;26.52;25.60;;;21.90;99.90;;;;;;4982467;28;20293;-66
2023/07/04 06:50:31;;;;;;;24.58;23.73;;;22.00;99.90;;;;;;4980185;28;20207;-62
2023/07/04 06:52:58;;;;;;;24.38;23.55;;;22.10;99.90;;;;;;4979626;28;20207;-62
2023/07/04 06:55:26;;;;;;;24.65;23.83;;;22.10;99.90;;;;;;4973621;28;20298;-61
2023/07/04 06:57:53;;;;;;;26.27;25.27;;;22.10;99.90;;;;;;4972609;28;20213;-61
2023/07/04 07:00:20;;;;;;;25.23;24.33;;;22.10;99.90;;;;;;4973100;28;20211;-61
2023/07/04 07:02:50;;;;;;;25.92;25.02;;;22.00;99.90;;;;;;4973421;28;20677;-61
2023/07/04 07:05:18;;;;;;;25.35;24.45;;;22.10;99.90;;;;;;4972749;28;20187;-62
2023/07/04 07:07:46;;;;;;;24.83;23.95;;;22.20;99.90;;;;;;4971784;28;20288;-62
2023/07/04 07:10:13;;;;;;;23.15;22.35;;;22.30;99.90;;;;;;4971258;28;20221;-62
2023/07/04 07:12:41;;;;;;;24.55;23.65;;;22.30;99.90;;;;;;5022285;22;20229;-63
2023/07/04 07:15:08;;;;;;;23.95;23.15;;;22.40;99.90;;;;;;5013572;28;20205;-64
2023/07/04 07:17:35;;;;;;;22.08;21.27;;;22.50;99.90;;;;;;5011361;28;20208;-62
2023/07/04 07:20:02;;;;;;;23.00;22.20;;;22.50;99.90;;;;;;5010437;28;20205;-62
2023/07/04 07:22:29;;;;;;;22.88;22.08;;;22.60;99.90;;;;;;5011066;28;20325;-62
2023/07/04 07:24:55;;;;;;;23.25;22.45;;;22.80;99.90;;;;;;5011353;28;20705;-61
2023/07/04 07:27:22;;;;;;;23.58;22.77;;;22.80;99.90;;;;;;5012247;28;20205;-63
2023/07/04 07:29:50;;;;;;;20.98;20.27;;;22.90;99.90;;;;;;5011673;28;20300;-63
2023/07/04 07:32:17;;;;;;;19.10;18.48;;;23.00;99.90;;;;;;5012110;28;20225;-63
2023/07/04 07:34:44;;;;;;;19.35;18.65;;;23.00;99.90;;;;;;5012145;28;20210;-63
2023/07/04 07:37:12;;;;;;;18.60;18.00;;;23.10;99.90;;;;;;5011379;28;20205;-61
2023/07/04 07:39:40;;;;;;;18.15;17.55;;;23.30;99.90;;;;;;5010307;28;20205;-63
2023/07/04 07:42:07;;;;;;;15.90;15.40;;;23.50;99.90;;;;;;5010617;28;20240;-62
2023/07/04 07:44:35;;;;;;;15.55;15.05;;;23.70;99.90;;;;;;5010658;28;20233;-63
2023/07/04 07:47:03;;;;;;;15.40;14.90;;;23.60;99.90;;;;;;5010579;28;20206;-61
2023/07/04 07:49:30;;;;;;;14.88;14.38;;;23.70;99.90;;;;;;5009851;28;20675;-63
2023/07/04 07:51:56;;;;;;;14.80;14.30;;;23.80;99.90;;;;;;5010809;28;20283;-62
2023/07/04 07:54:23;;;;;;;14.70;14.20;;;23.70;99.90;;;;;;5010743;28;20215;-63
2023/07/04 07:56:50;;;;;;;13.90;13.40;;;23.70;99.90;;;;;;5010584;28;20205;-63
2023/07/04 07:59:17;;;;;;;14.40;13.90;;;23.70;99.90;;;;;;5010148;28;20259;-63
2023/07/04 08:01:44;;;;;;;14.18;13.68;;;23.80;99.90;;;;;;5010778;28;20283;-62
2023/07/04 08:04:12;;;;;;;13.10;12.70;;;23.90;99.90;;;;;;5010784;28;20229;-62
2023/07/04 08:06:42;;;;;;;14.10;13.60;;;23.80;99.90;;;;;;5008568;28;20201;-63
2023/07/04 08:09:11;;;;;;;14.73;14.23;;;23.70;99.90;;;;;;5010239;28;20292;-63
2023/07/04 08:11:38;;;;;;;13.70;13.20;;;23.90;99.90;;;;;;5013015;28;20237;-62
2023/07/04 08:14:05;;;;;;;13.13;12.73;;;24.10;99.90;;;;;;5012970;28;20205;-62
2023/07/04 08:16:42;;;;;;;13.50;13.00;;;24.20;99.90;;;;;;5015949;28;20213;-62
2023/07/04 08:19:09;;;;;;;14.27;13.57;;;24.40;99.90;;;;;;5015438;28;20419;-63
2023/07/04 08:21:37;;;;;;;13.27;12.77;;;24.50;99.90;;;;;;5012398;28;20252;-63
2023/07/04 08:24:10;;;;;;;13.55;13.05;;;24.40;99.90;;;;;;5000108;28;20225;-63
2023/07/04 08:26:38;;;;;;;12.65;12.25;;;24.50;99.90;;;;;;4997420;28;20305;-64
2023/07/04 08:29:06;;;;;;;13.48;12.98;;;24.40;99.90;;;;;;5000598;28;20687;-64
2023/07/04 08:31:34;;;;;;;12.90;12.50;;;24.30;99.90;;;;;;4999670;28;20221;-63
2023/07/04 08:34:01;;;;;;;13.18;12.77;;;24.30;99.90;;;;;;4999862;28;20201;-62
2023/07/04 08:36:27;;;;;;;13.20;12.70;;;24.50;99.90;;;;;;5007400;28;20208;-62
2023/07/04 08:38:56;;;;;;;13.07;12.68;;;24.80;99.90;;;;;;5007001;28;20212;-63
2023/07/04 08:41:31;;;;;;;13.52;13.02;;;25.00;99.90;;;;;;4999848;28;20228;-62
2023/07/04 08:44:03;;;;;;;13.95;13.45;;;25.10;99.90;;;;;;5002271;28;20276;-63
2023/07/04 08:46:35;;;;;;;13.23;12.82;;;25.40;99.90;;;;;;5002447;28;20208;-63
2023/07/04 08:49:03;;;;;;;13.30;12.80;;;25.20;99.90;;;;;;4999301;28;20193;-64
2023/07/04 08:51:36;;;;;;;13.60;13.10;;;25.30;99.90;;;;;;4999313;28;20221;-63
2023/07/04 08:54:09;;;;;;;13.80;13.30;;;25.30;99.90;;;;;;5001961;28;20228;-63
2023/07/04 08:56:38;;;;;;;13.57;13.07;;;25.20;99.90;;;;;;5000858;28;20198;-63
2023/07/04 08:59:11;;;;;;;14.02;13.48;;;25.20;99.90;;;;;;5003381;28;20689;-63
2023/07/04 09:01:50;;;;;;;13.10;12.70;;;25.30;99.90;;;;;;5005941;28;20228;-62
2023/07/04 09:04:22;;;;;;;13.60;13.10;;;25.30;99.90;;;;;;5003848;28;20224;-64
2023/07/04 09:06:58;;;;;;;13.45;12.95;;;25.20;99.90;;;;;;4999773;28;20195;-62
2023/07/04 09:09:39;;;;;;;14.30;13.80;;;25.20;99.90;;;;;;4997921;28;20197;-63
2023/07/04 09:12:07;;;;;;;13.85;13.35;;;25.20;99.90;;;;;;4997764;28;20255;-64
2023/07/04 09:14:40;;;;;;;14.40;13.90;;;25.40;99.90;;;;;;5000714;28;20240;-64
2023/07/04 09:17:17;;;;;;;13.55;13.05;;;25.50;99.90;;;;;;4999791;28;20238;-63
2023/07/04 09:19:46;;;;;;;13.65;13.15;;;25.50;99.90;;;;;;4998752;28;20209;-65
2023/07/04 09:22:14;;;;;;;13.90;13.40;;;25.50;99.90;;;;;;4999545;28;20226;-63
2023/07/04 09:24:42;;;;;;;14.20;13.60;;;25.70;99.90;;;;;;4999667;28;20225;-63
2023/07/04 09:27:11;;;;;;;14.27;13.70;;;25.70;99.90;;;;;;5004909;28;20205;-64
2023/07/04 09:29:38;;;;;;;14.20;13.70;;;25.50;99.90;;;;;;5002981;28;20201;-63
2023/07/04 09:32:07;;;;;;;14.63;14.13;;;25.50;99.90;;;;;;5002378;28;20221;-64
2023/07/04 09:34:40;;;;;;;14.07;13.57;;;25.80;99.90;;;;;;5004832;28;20229;-62
2023/07/04 09:37:13;;;;;;;13.93;13.43;;;25.80;99.90;;;;;;5003307;28;20225;-62
2023/07/04 09:39:49;;;;;;;14.68;14.18;;;25.70;99.90;;;;;;5003850;28;20705;-65
2023/07/04 09:42:17;;;;;;;14.25;13.73;;;25.90;99.90;;;;;;5000802;28;20308;-62
2023/07/04 09:44:46;;;;;;;14.25;13.75;;;26.20;99.90;;;;;;5002780;28;20221;-64
2023/07/04 09:47:22;;;;;;;13.70;13.20;;;26.20;99.90;;;;;;5003561;28;20227;-63
2023/07/04 09:50:07;;;;;;;14.18;13.68;;;25.90;99.90;;;;;;5002744;28;20204;-62
2023/07/04 09:52:34;;;;;;;13.63;13.13;;;25.50;99.90;;;;;;5004422;28;20239;-64
2023/07/04 09:55:16;;;;;;;13.00;12.50;;;25.30;99.90;;;;;;5004672;28;20230;-62
2023/07/04 09:57:44;;;;;;;12.80;12.30;;;25.40;99.90;;;;;;5007929;28;20287;-64
2023/07/04 10:00:21;;;;;;;12.50;12.10;;;25.60;99.90;;;;;;5012361;28;20703;-64
2023/07/04 10:02:52;;;;;;;12.23;11.82;;;25.60;99.90;;;;;;4999483;28;20221;-63
2023/07/04 10:05:30;;;;;;;12.63;12.23;;;25.70;99.90;;;;;;5010284;28;20751;-62
2023/07/04 10:08:05;;;;;;;12.27;11.88;;;25.80;99.90;;;;;;5004228;28;20220;-63
2023/07/04 10:10:36;;;;;;;13.35;12.85;;;26.10;99.90;;;;;;5002309;28;20612;-63
2023/07/04 10:13:05;;;;;;;13.18;12.68;;;26.00;99.90;;;;;;5003753;28;20251;-63
2023/07/04 10:15:39;;;;;;;13.65;13.15;;;25.90;99.90;;;;;;5008779;28;20566;-62
2023/07/04 10:18:06;;;;;;;13.60;13.10;;;25.80;99.90;;;;;;5011514;28;20682;-63
2023/07/04 10:20:39;;;;;;;14.48;13.98;;;26.30;99.90;;;;;;5002539;28;20198;-64
2023/07/04 10:23:05;;;;;;;15.20;14.70;;;26.60;99.90;;;;;;5003289;28;20656;-63
2023/07/04 10:25:35;;;;;;;15.02;14.52;;;26.70;99.90;;;;;;5001809;28;20245;-62
2023/07/04 10:28:12;;;;;;;15.98;15.43;;;26.50;99.90;;;;;;5001674;28;20723;-63
2023/07/04 10:30:42;;;;;;;14.95;14.45;;;26.50;99.90;;;;;;5001395;28;20574;-64
2023/07/04 10:33:19;;;;;;;15.65;15.10;;;26.50;99.90;;;;;;5002221;28;20222;-63
2023/07/04 10:35:48;;;;;;;16.45;15.85;;;26.70;99.90;;;;;;5002646;28;20204;-64
2023/07/04 10:38:35;;;;;;;15.95;15.35;;;27.10;99.90;;;;;;5003018;28;20679;-64
2023/07/04 10:41:21;;;;;;;16.00;15.40;;;27.10;99.90;;;;;;5000588;28;20676;-64
2023/07/04 10:43:53;;;;;;;15.23;14.70;;;27.30;99.90;;;;;;5009306;28;20229;-63
2023/07/04 10:46:25;;;;;;;15.07;14.57;;;27.60;99.90;;;;;;5010880;28;20788;-63
2023/07/04 10:48:57;;;;;;;14.32;13.82;;;27.80;99.90;;;;;;5011442;28;20221;-62
2023/07/04 10:51:30;;;;;;;14.32;13.82;;;27.90;99.90;;;;;;5010166;28;20224;-64
2023/07/04 10:53:58;;;;;;;14.27;13.77;;;27.90;99.90;;;;;;5008938;28;20236;-62
2023/07/04 10:56:31;;;;;;;14.30;13.80;;;27.80;99.90;;;;;;5010879;28;20212;-64
2023/07/04 10:59:03;;;;;;;14.38;13.88;;;27.70;99.90;;;;;;5009222;28;20287;-63
2023/07/04 11:01:36;;;;;;;14.35;13.85;;;27.50;99.90;;;;;;5010624;28;20725;-63
2023/07/04 11:04:10;;;;;;;14.80;14.30;;;27.20;99.90;;;;;;5010164;28;20235;-63
2023/07/04 11:06:43;;;;;;;14.05;13.55;;;26.90;99.90;;;;;;5012078;28;20225;-64
2023/07/04 11:09:13;;;;;;;15.45;14.95;;;26.80;99.90;;;;;;5011346;28;20291;-64
2023/07/04 11:11:46;;;;;;;14.10;13.60;;;26.90;99.90;;;;;;5010393;28;20233;-64
2023/07/04 11:14:24;;;;;;;13.43;12.93;;;26.90;99.90;;;;;;5013422;28;20201;-63
2023/07/04 11:16:54;;;;;;;14.10;13.60;;;26.70;99.90;;;;;;5011789;28;20259;-64
2023/07/04 11:19:22;;;;;;;15.80;15.20;;;26.60;99.90;;;;;;5011188;28;20237;-63
2023/07/04 11:22:11;;;;;;;14.10;13.60;;;26.90;99.90;;;;;;5014267;28;20227;-64
2023/07/04 11:24:40;;;;;;;13.90;13.40;;;27.30;99.90;;;;;;5010828;28;20698;-63
2023/07/04 11:27:14;;;;;;;14.65;14.15;;;27.60;99.90;;;;;;5011897;28;20211;-64
2023/07/04 11:29:51;;;;;;;14.68;14.18;;;27.50;99.90;;;;;;5011130;28;20197;-62
2023/07/04 11:32:26;;;;;;;14.73;14.23;;;27.40;99.90;;;;;;5011003;28;20229;-62
2023/07/04 11:34:54;;;;;;;14.10;13.60;;;27.40;99.90;;;;;;5010888;28;20201;-63
2023/07/04 11:37:30;;;;;;;14.70;14.18;;;27.30;99.90;;;;;;5014315;28;20266;-63
2023/07/04 11:39:59;;;;;;;13.88;13.38;;;27.40;99.90;;;;;;5009713;28;20205;-61
2023/07/04 11:42:38;;;;;;;13.68;13.18;;;27.60;99.90;;;;;;5013360;28;20271;-63
2023/07/04 11:45:08;;;;;;;14.40;13.90;;;27.60;99.90;;;;;;5015199;28;20228;-62
2023/07/04 11:47:40;;;;;;;13.90;13.40;;;27.40;99.90;;;;;;5009658;28;20207;-61
2023/07/04 11:50:16;;;;;;;14.70;14.20;;;27.10;99.90;;;;;;5010616;28;20205;-63
2023/07/04 11:52:45;;;;;;;13.70;13.20;;;27.20;99.90;;;;;;5007444;28;20223;-62
2023/07/04 11:55:16;;;;;;;13.95;13.45;;;27.20;99.90;;;;;;5009267;28;20503;-62
2023/07/04 11:58:03;;;;;;;13.80;13.30;;;27.30;99.90;;;;;;5004888;28;20223;-62
2023/07/04 12:01:03;;;;;;;13.80;13.30;;;27.40;99.90;;;;;;5011282;28;20211;-65
2023/07/04 12:03:56;;;;;;;13.20;12.70;;;27.50;99.90;;;;;;5006927;28;20325;-63
2023/07/04 12:06:53;;;;;;;13.80;13.30;;;27.70;99.90;;;;;;5004497;28;20259;-63
2023/07/04 12:09:30;;;;;;;13.27;12.77;;;27.80;99.90;;;;;;5008991;28;20236;-64
2023/07/04 12:11:58;;;;;;;13.50;12.90;;;27.80;99.90;;;;;;5009248;28;20237;-64
2023/07/04 12:14:27;;;;;;;14.25;13.75;;;28.00;99.90;;;;;;5011164;28;20225;-63
2023/07/04 12:16:58;;;;;;;13.77;13.27;;;28.20;99.90;;;;;;5004362;28;20208;-61
2023/07/04 12:19:25;;;;;;;14.30;13.80;;;28.30;99.90;;;;;;4999759;28;20260;-64
2023/07/04 12:21:52;;;;;;;13.07;12.57;;;28.60;99.90;;;;;;5000810;28;20222;-62
2023/07/04 12:24:22;;;;;;;12.43;11.93;;;28.70;99.90;;;;;;5009188;28;20224;-63
2023/07/04 12:26:57;;;;;;;13.00;12.50;;;28.60;99.90;;;;;;5003670;28;20216;-62
2023/07/04 12:29:26;;;;;;;13.40;12.90;;;28.50;99.90;;;;;;4993274;28;20281;-63
2023/07/04 12:32:08;;;;;;;13.43;12.93;;;28.30;99.90;;;;;;4991357;28;20232;-64
2023/07/04 12:34:36;;;;;;;13.20;12.70;;;28.30;99.90;;;;;;4991368;28;20209;-64
2023/07/04 12:37:05;;;;;;;12.73;12.23;;;28.50;99.90;;;;;;4995886;28;20677;-63
2023/07/04 12:39:42;;;;;;;13.23;12.73;;;28.70;99.90;;;;;;5009941;28;20203;-64
2023/07/04 12:42:13;;;;;;;11.85;11.45;;;28.80;99.90;;;;;;5010712;28;20703;-64